Terminal Aerodrome Forecast
Issued by NWS Charleston, SC

Home | Current Version | Previous Version | Text Only | Print | Product List | Glossary On
Versions: 1 2 3 4 5 6 7 8 9 10 11 12 13
617
FTUS42 KCHS 172328
TAFCHS
TAF
KCHS 172328Z 1800/1824 VRB03KT P6SM BKN200
     FM180900 VRB03KT P6SM SCT025 BKN060
     FM181200 VRB02KT 6SM BR SCT007 BKN015
     FM181700 24006KT P6SM SCT012 OVC020=

USA.gov is the U.S. government's official web portal to all federal, state and local government web resources and services.